createdAt,value
2023-03-27T00:00:09.085Z,9.80
2023-03-27T00:00:19.110Z,8.40
2023-03-27T00:00:29.245Z,9.90
2023-03-27T00:00:39.287Z,8.80
2023-03-27T00:00:49.315Z,9.00
2023-03-27T00:00:59.352Z,6.30
2023-03-27T00:01:09.382Z,8.40
2023-03-27T00:01:19.407Z,8.40
2023-03-27T00:01:29.431Z,9.60
2023-03-27T00:01:39.475Z,7.60
2023-03-27T00:01:49.561Z,8.40
2023-03-27T00:01:59.714Z,8.60
2023-03-27T00:02:09.736Z,8.60
2023-03-27T00:02:19.842Z,7.80
2023-03-27T00:02:29.994Z,8.30
2023-03-27T00:02:39.964Z,7.70
2023-03-27T00:02:50.224Z,8.90
2023-03-27T00:03:00.218Z,8.60
2023-03-27T00:03:10.216Z,8.20
2023-03-27T00:03:20.322Z,7.80
2023-03-27T00:03:30.461Z,7.40
2023-03-27T00:03:40.857Z,9.70
2023-03-27T00:03:50.800Z,8.00
2023-03-27T00:04:00.801Z,9.00
2023-03-27T00:04:10.931Z,7.30
2023-03-27T00:04:21.138Z,8.00
2023-03-27T00:04:30.995Z,7.70
2023-03-27T00:04:41.027Z,7.60
2023-03-27T00:04:51.045Z,6.10
2023-03-27T00:05:01.075Z,7.40
2023-03-27T00:05:11.111Z,7.30
2023-03-27T00:05:21.144Z,8.70
2023-03-27T00:05:31.178Z,7.20
2023-03-27T00:05:41.218Z,9.10
2023-03-27T00:05:51.256Z,8.80
2023-03-27T00:06:01.294Z,9.40
2023-03-27T00:06:11.408Z,7.70
2023-03-27T00:06:21.463Z,8.20
2023-03-27T00:06:31.503Z,7.90
2023-03-27T00:06:41.523Z,9.30
2023-03-27T00:06:51.685Z,9.20
2023-03-27T00:07:01.715Z,10.10
2023-03-27T00:07:11.745Z,10.50
2023-03-27T00:07:21.782Z,11.50
2023-03-27T00:07:31.822Z,9.70
2023-03-27T00:07:41.825Z,9.80
2023-03-27T00:07:51.863Z,10.10
2023-03-27T00:08:01.920Z,10.40
2023-03-27T00:08:12.047Z,6.70
2023-03-27T00:08:22.065Z,4.20
2023-03-27T00:08:32.139Z,5.30
2023-03-27T00:08:42.188Z,8.30
2023-03-27T00:08:52.252Z,9.30
2023-03-27T00:09:02.289Z,9.70
2023-03-27T00:09:12.342Z,8.50
2023-03-27T00:09:22.386Z,8.40
2023-03-27T00:09:32.437Z,8.10
2023-03-27T00:09:42.481Z,9.70
2023-03-27T00:09:52.552Z,8.50
2023-03-27T00:10:02.562Z,8.60
2023-03-27T00:10:12.628Z,7.00
2023-03-27T00:10:22.644Z,7.70
2023-03-27T00:10:32.678Z,10.50
2023-03-27T00:10:42.727Z,9.80
2023-03-27T00:10:52.770Z,10.70
2023-03-27T00:11:02.818Z,8.20
2023-03-27T00:11:12.851Z,8.10
2023-03-27T00:11:22.886Z,7.50
2023-03-27T00:11:32.939Z,8.60
2023-03-27T00:11:42.975Z,8.00
2023-03-27T00:11:53.083Z,7.90
2023-03-27T00:12:03.123Z,7.30
2023-03-27T00:12:13.218Z,8.80
2023-03-27T00:12:23.204Z,8.40
2023-03-27T00:12:33.248Z,7.90
2023-03-27T00:12:43.281Z,7.70
2023-03-27T00:12:53.341Z,8.30
2023-03-27T00:13:03.367Z,6.70
2023-03-27T00:13:13.444Z,5.00
2023-03-27T00:13:23.479Z,4.30
2023-03-27T00:13:33.524Z,4.00
2023-03-27T00:13:49.790Z,4.20
2023-03-27T00:13:54.933Z,5.40
2023-03-27T00:14:04.544Z,6.60
2023-03-27T00:14:14.559Z,6.20
2023-03-27T00:14:24.589Z,7.20
2023-03-27T00:14:34.638Z,6.40
2023-03-27T00:14:44.665Z,6.90
2023-03-27T00:14:54.698Z,5.00
2023-03-27T00:15:04.734Z,7.30
2023-03-27T00:15:14.760Z,8.90
2023-03-27T00:15:24.841Z,8.80
2023-03-27T00:15:34.954Z,8.40
2023-03-27T00:15:44.978Z,7.10
2023-03-27T00:15:55.031Z,7.10
2023-03-27T00:16:05.049Z,5.00
2023-03-27T00:16:15.093Z,4.00
2023-03-27T00:16:25.375Z,5.60
2023-03-27T00:16:35.245Z,6.60
2023-03-27T00:16:45.282Z,7.00
2023-03-27T00:16:55.350Z,6.30
2023-03-27T00:17:05.396Z,5.60
2023-03-27T00:17:15.420Z,7.10
2023-03-27T00:17:25.462Z,7.90
2023-03-27T00:17:35.521Z,8.00
2023-03-27T00:17:45.620Z,6.80
2023-03-27T00:17:55.674Z,6.10
2023-03-27T00:18:05.710Z,7.20
2023-03-27T00:18:15.771Z,8.10
2023-03-27T00:18:25.810Z,8.40
2023-03-27T00:18:35.835Z,7.00
2023-03-27T00:18:46.006Z,5.80
2023-03-27T00:18:56.061Z,4.70
2023-03-27T00:19:06.070Z,4.50
2023-03-27T00:19:16.109Z,6.10
2023-03-27T00:19:26.163Z,7.00
2023-03-27T00:19:36.276Z,10.30
2023-03-27T00:19:46.336Z,8.90
2023-03-27T00:19:56.380Z,10.10
2023-03-27T00:20:06.427Z,9.10
2023-03-27T00:20:16.466Z,11.70
2023-03-27T00:20:26.539Z,11.30
2023-03-27T00:20:36.588Z,12.30
2023-03-27T00:20:46.626Z,10.00
2023-03-27T00:20:56.860Z,8.50
2023-03-27T00:21:06.730Z,6.30
2023-03-27T00:21:16.794Z,7.50
2023-03-27T00:21:26.817Z,7.30
2023-03-27T00:21:36.849Z,7.00
2023-03-27T00:21:46.888Z,6.10
2023-03-27T00:21:56.932Z,7.10
2023-03-27T00:22:06.967Z,7.00
2023-03-27T00:22:16.996Z,6.30
2023-03-27T00:22:27.033Z,5.90
2023-03-27T00:22:37.070Z,5.90
2023-03-27T00:22:47.112Z,8.40
2023-03-27T00:22:57.136Z,7.50
2023-03-27T00:23:07.167Z,7.90
2023-03-27T00:23:17.217Z,6.90
2023-03-27T00:23:27.254Z,8.70
2023-03-27T00:23:37.316Z,9.00
2023-03-27T00:23:47.354Z,8.50
2023-03-27T00:23:57.389Z,7.50
2023-03-27T00:24:07.486Z,6.70
2023-03-27T00:24:17.537Z,7.10
2023-03-27T00:24:27.574Z,7.30
2023-03-27T00:24:37.608Z,8.60
2023-03-27T00:24:47.647Z,10.10
2023-03-27T00:24:57.727Z,9.50
2023-03-27T00:25:07.772Z,9.90
2023-03-27T00:25:17.801Z,9.40
2023-03-27T00:25:27.841Z,8.60
2023-03-27T00:25:37.873Z,7.90
2023-03-27T00:25:47.902Z,6.70
2023-03-27T00:25:57.959Z,7.10
2023-03-27T00:26:07.999Z,7.60
2023-03-27T00:26:18.053Z,6.90
2023-03-27T00:26:28.075Z,6.80
2023-03-27T00:26:38.124Z,5.80
2023-03-27T00:26:48.146Z,6.20
2023-03-27T00:26:58.226Z,6.00
2023-03-27T00:27:08.273Z,6.40
2023-03-27T00:27:18.326Z,6.90
2023-03-27T00:27:28.353Z,8.70
2023-03-27T00:27:38.402Z,9.00
2023-03-27T00:27:48.420Z,7.00
2023-03-27T00:27:58.473Z,8.30
2023-03-27T00:28:08.514Z,9.50
2023-03-27T00:28:18.579Z,10.20
2023-03-27T00:28:28.661Z,7.90
2023-03-27T00:28:38.666Z,8.30
2023-03-27T00:28:48.715Z,7.60
2023-03-27T00:28:58.745Z,8.10
2023-03-27T00:29:08.774Z,6.20
2023-03-27T00:29:18.825Z,8.10
2023-03-27T00:29:28.835Z,8.40
2023-03-27T00:29:38.876Z,7.40
2023-03-27T00:29:48.923Z,7.30
2023-03-27T00:29:58.956Z,7.40
2023-03-27T00:30:08.966Z,8.20
2023-03-27T00:30:19.156Z,8.80
2023-03-27T00:30:29.220Z,9.20
2023-03-27T00:30:39.324Z,10.20
2023-03-27T00:30:49.374Z,10.00
2023-03-27T00:30:59.688Z,9.60
2023-03-27T00:31:09.593Z,10.90
2023-03-27T00:31:19.732Z,11.10
2023-03-27T00:31:29.781Z,11.30
2023-03-27T00:31:39.837Z,10.00
2023-03-27T00:31:49.901Z,8.60
2023-03-27T00:31:59.931Z,8.10
2023-03-27T00:32:09.967Z,7.50
2023-03-27T00:32:20.014Z,7.20
2023-03-27T00:32:30.081Z,8.00
2023-03-27T00:32:40.116Z,9.00
2023-03-27T00:32:50.193Z,8.90
2023-03-27T00:33:00.292Z,10.40
2023-03-27T00:33:10.368Z,8.60
2023-03-27T00:33:20.390Z,7.60
2023-03-27T00:33:30.421Z,4.80
2023-03-27T00:33:40.475Z,6.20
2023-03-27T00:33:50.506Z,6.20
2023-03-27T00:34:00.557Z,6.70
2023-03-27T00:34:10.601Z,7.00
2023-03-27T00:34:20.690Z,10.10
2023-03-27T00:34:30.734Z,10.50
2023-03-27T00:34:40.778Z,10.10
2023-03-27T00:34:50.814Z,8.80
2023-03-27T00:35:00.841Z,9.70
2023-03-27T00:35:10.878Z,11.60
2023-03-27T00:35:20.919Z,9.80
2023-03-27T00:35:31.005Z,8.80
2023-03-27T00:35:41.061Z,5.80
2023-03-27T00:35:51.088Z,6.00
2023-03-27T00:36:01.175Z,5.50
2023-03-27T00:36:11.210Z,6.70
2023-03-27T00:36:21.241Z,6.90
2023-03-27T00:36:31.276Z,6.10
2023-03-27T00:36:41.305Z,7.30
2023-03-27T00:36:51.349Z,7.20
2023-03-27T00:37:01.431Z,6.80
2023-03-27T00:37:11.464Z,6.60
2023-03-27T00:37:21.523Z,6.20
2023-03-27T00:37:31.556Z,7.80
2023-03-27T00:37:41.593Z,6.70
2023-03-27T00:37:51.636Z,6.50
2023-03-27T00:38:01.672Z,4.40
2023-03-27T00:38:11.704Z,5.20
2023-03-27T00:38:21.759Z,7.60
2023-03-27T00:38:31.795Z,8.20
2023-03-27T00:38:41.842Z,9.10
2023-03-27T00:38:51.985Z,6.50
2023-03-27T00:39:02.025Z,6.20
2023-03-27T00:39:12.068Z,5.70
2023-03-27T00:39:22.106Z,7.00
2023-03-27T00:39:32.151Z,7.40
2023-03-27T00:39:42.192Z,5.90
2023-03-27T00:39:52.242Z,5.90
2023-03-27T00:40:02.294Z,7.70
2023-03-27T00:40:12.343Z,7.90
2023-03-27T00:40:22.372Z,7.10
2023-03-27T00:40:32.465Z,4.70
2023-03-27T00:40:42.497Z,7.40
2023-03-27T00:40:52.567Z,7.30
2023-03-27T00:41:02.620Z,9.50
2023-03-27T00:41:12.845Z,7.00
2023-03-27T00:41:22.795Z,10.30
2023-03-27T00:41:32.817Z,8.50
2023-03-27T00:41:42.854Z,8.30
2023-03-27T00:41:52.960Z,6.30
2023-03-27T00:42:02.992Z,9.40
2023-03-27T00:42:13.052Z,11.10
2023-03-27T00:42:23.095Z,9.30
2023-03-27T00:42:33.126Z,6.80
2023-03-27T00:42:43.182Z,5.10
2023-03-27T00:42:53.250Z,6.80
2023-03-27T00:43:03.302Z,7.90
2023-03-27T00:43:13.449Z,8.00
2023-03-27T00:43:23.468Z,7.50
2023-03-27T00:43:33.490Z,6.40
2023-03-27T00:43:43.738Z,6.30
2023-03-27T00:43:53.603Z,4.80
2023-03-27T00:44:03.707Z,4.60
2023-03-27T00:44:13.733Z,5.40
2023-03-27T00:44:23.784Z,5.90
2023-03-27T00:44:33.836Z,7.40
2023-03-27T00:44:43.881Z,7.40
2023-03-27T00:44:53.936Z,7.60
2023-03-27T00:45:03.952Z,7.10
2023-03-27T00:45:14.006Z,6.40
2023-03-27T00:45:24.056Z,6.50
2023-03-27T00:45:34.108Z,7.20
2023-03-27T00:45:44.140Z,8.70
2023-03-27T00:45:54.195Z,7.00
2023-03-27T00:46:04.370Z,5.70
2023-03-27T00:46:14.402Z,6.00
2023-03-27T00:46:24.518Z,6.20
2023-03-27T00:46:34.533Z,7.80
2023-03-27T00:46:44.595Z,6.50
2023-03-27T00:46:54.640Z,7.20
2023-03-27T00:47:04.688Z,5.50
2023-03-27T00:47:14.726Z,5.20
2023-03-27T00:47:24.801Z,7.90
2023-03-27T00:47:34.867Z,8.20
2023-03-27T00:47:44.928Z,8.80
2023-03-27T00:47:55.045Z,7.30
2023-03-27T00:48:05.103Z,8.10
2023-03-27T00:48:15.112Z,8.00
2023-03-27T00:48:25.162Z,8.30
2023-03-27T00:48:35.208Z,9.80
2023-03-27T00:48:45.291Z,11.30
2023-03-27T00:48:55.417Z,9.10
2023-03-27T00:49:05.451Z,6.40
2023-03-27T00:49:15.493Z,4.90
2023-03-27T00:49:25.534Z,7.60
2023-03-27T00:49:35.570Z,7.40
2023-03-27T00:49:45.624Z,8.70
2023-03-27T00:49:55.674Z,6.30
2023-03-27T00:50:05.719Z,6.40
2023-03-27T00:50:15.783Z,5.10
2023-03-27T00:50:25.835Z,5.80
2023-03-27T00:50:35.885Z,7.10
2023-03-27T00:50:45.925Z,7.10
2023-03-27T00:50:56.244Z,6.60
2023-03-27T00:51:06.185Z,4.60
2023-03-27T00:51:16.214Z,5.50
2023-03-27T00:51:26.271Z,6.30
2023-03-27T00:51:36.315Z,6.70
2023-03-27T00:51:46.357Z,8.30
2023-03-27T00:51:56.393Z,8.30
2023-03-27T00:52:06.440Z,11.20
2023-03-27T00:52:16.490Z,8.10
2023-03-27T00:52:26.524Z,7.20
2023-03-27T00:52:36.572Z,4.30
2023-03-27T00:52:46.615Z,4.70
2023-03-27T00:52:56.657Z,6.40
2023-03-27T00:53:06.706Z,7.90
2023-03-27T00:53:16.749Z,7.50
2023-03-27T00:53:26.832Z,7.40
2023-03-27T00:53:36.862Z,6.50
2023-03-27T00:53:46.902Z,8.00
2023-03-27T00:53:56.951Z,7.30
2023-03-27T00:54:06.984Z,8.70
2023-03-27T00:54:17.031Z,7.70
2023-03-27T00:54:27.083Z,7.50
2023-03-27T00:54:37.127Z,7.60
2023-03-27T00:54:47.183Z,8.00
2023-03-27T00:54:57.226Z,9.50
2023-03-27T00:55:07.357Z,8.80
2023-03-27T00:55:17.405Z,9.10
2023-03-27T00:55:27.444Z,7.50
2023-03-27T00:55:37.524Z,7.90
2023-03-27T00:55:47.570Z,6.70
2023-03-27T00:55:57.626Z,8.20
2023-03-27T00:56:07.693Z,6.90
2023-03-27T00:56:17.731Z,8.20
2023-03-27T00:56:27.779Z,7.70
2023-03-27T00:56:37.858Z,7.90
2023-03-27T00:56:47.878Z,7.30
2023-03-27T00:56:58.007Z,8.20
2023-03-27T00:57:08.083Z,8.30
2023-03-27T00:57:18.118Z,8.80
2023-03-27T00:57:28.147Z,7.80
2023-03-27T00:57:38.193Z,6.60
2023-03-27T00:57:48.231Z,6.90
2023-03-27T00:57:58.266Z,6.20
2023-03-27T00:58:08.301Z,6.20
2023-03-27T00:58:18.332Z,6.20
2023-03-27T00:58:28.392Z,5.40
2023-03-27T00:58:38.434Z,5.60
2023-03-27T00:58:48.467Z,6.10
2023-03-27T00:58:58.512Z,6.90
2023-03-27T00:59:08.538Z,7.50
2023-03-27T00:59:18.584Z,6.70
2023-03-27T00:59:28.614Z,8.70
2023-03-27T00:59:38.636Z,7.40
2023-03-27T00:59:48.661Z,6.40
2023-03-27T00:59:58.736Z,6.30
2023-03-27T01:00:09.469Z,8.20
2023-03-27T01:00:18.892Z,8.20
2023-03-27T01:00:28.935Z,7.30
2023-03-27T01:00:38.958Z,5.30
2023-03-27T01:00:49.023Z,6.50
2023-03-27T01:00:59.324Z,6.20
2023-03-27T01:01:09.264Z,6.40
2023-03-27T01:01:19.231Z,4.90
2023-03-27T01:01:29.320Z,6.60
2023-03-27T01:01:39.398Z,8.10
2023-03-27T01:01:49.460Z,9.30
2023-03-27T01:01:59.543Z,6.80
2023-03-27T01:02:09.546Z,7.40
2023-03-27T01:02:19.591Z,6.50
2023-03-27T01:02:29.811Z,6.80
2023-03-27T01:02:39.721Z,5.50
2023-03-27T01:02:49.942Z,4.90
2023-03-27T01:03:00.958Z,5.40
2023-03-27T01:03:09.982Z,7.20
2023-03-27T01:03:20.126Z,5.90
2023-03-27T01:03:30.319Z,6.50
2023-03-27T01:03:40.357Z,5.20
2023-03-27T01:03:50.507Z,10.30
2023-03-27T01:04:00.404Z,11.80
2023-03-27T01:04:10.443Z,10.80
2023-03-27T01:04:20.525Z,6.20
2023-03-27T01:04:30.548Z,4.80
2023-03-27T01:04:40.591Z,4.70
2023-03-27T01:04:50.666Z,4.90
2023-03-27T01:05:00.687Z,5.20
2023-03-27T01:05:10.721Z,6.30
2023-03-27T01:05:20.778Z,6.10
2023-03-27T01:05:30.790Z,7.10
2023-03-27T01:05:40.818Z,7.10
2023-03-27T01:05:50.850Z,7.90
2023-03-27T01:06:00.883Z,7.10
2023-03-27T01:06:10.927Z,6.40
2023-03-27T01:06:20.964Z,5.50
2023-03-27T01:06:31.001Z,5.60
2023-03-27T01:06:41.049Z,7.50
2023-03-27T01:06:51.087Z,9.20
2023-03-27T01:07:01.117Z,8.60
2023-03-27T01:07:11.174Z,5.70
2023-03-27T01:07:21.194Z,4.30
2023-03-27T01:07:31.222Z,4.80
2023-03-27T01:07:41.258Z,5.50
2023-03-27T01:08:01.533Z,5.20
2023-03-27T01:08:03.157Z,6.50
2023-03-27T01:08:13.186Z,6.10
2023-03-27T01:08:23.279Z,5.60
2023-03-27T01:08:33.296Z,4.60
2023-03-27T01:08:43.347Z,5.00
2023-03-27T01:08:53.402Z,6.00
2023-03-27T01:09:03.427Z,6.60
2023-03-27T01:09:20.124Z,6.70
2023-03-27T01:09:24.411Z,5.30
2023-03-27T01:09:34.451Z,6.10
2023-03-27T01:09:44.497Z,5.50
2023-03-27T01:09:54.535Z,6.70
2023-03-27T01:10:04.577Z,5.80
2023-03-27T01:10:14.588Z,6.90
2023-03-27T01:10:24.630Z,7.60
2023-03-27T01:10:34.668Z,8.10
2023-03-27T01:10:44.698Z,7.40
2023-03-27T01:10:55.014Z,5.60
2023-03-27T01:11:04.814Z,4.80
2023-03-27T01:11:14.857Z,6.20
2023-03-27T01:11:24.894Z,5.80
2023-03-27T01:11:34.938Z,6.80
2023-03-27T01:11:44.971Z,5.00
2023-03-27T01:11:55.008Z,5.30
2023-03-27T01:12:05.040Z,5.30
2023-03-27T01:12:15.096Z,5.30
2023-03-27T01:12:25.129Z,6.50
2023-03-27T01:12:35.157Z,6.70
2023-03-27T01:12:45.195Z,7.00
2023-03-27T01:12:55.244Z,6.50
2023-03-27T01:13:05.284Z,6.00
2023-03-27T01:13:15.306Z,5.50
2023-03-27T01:13:25.341Z,5.40
2023-03-27T01:13:35.423Z,4.70
2023-03-27T01:13:45.474Z,5.30
2023-03-27T01:13:55.552Z,5.00
2023-03-27T01:14:05.611Z,5.50
2023-03-27T01:14:15.646Z,5.20
2023-03-27T01:14:25.675Z,5.10
2023-03-27T01:14:35.703Z,5.30
2023-03-27T01:14:45.735Z,5.30
2023-03-27T01:14:55.767Z,5.20
2023-03-27T01:15:05.798Z,5.20
2023-03-27T01:15:15.823Z,5.20
2023-03-27T01:15:25.860Z,5.40
2023-03-27T01:15:35.923Z,5.00
2023-03-27T01:15:45.947Z,5.30
2023-03-27T01:15:56.004Z,6.10
2023-03-27T01:16:06.065Z,5.90
2023-03-27T01:16:16.130Z,5.40
2023-03-27T01:16:26.178Z,5.00
2023-03-27T01:16:36.213Z,5.00
2023-03-27T01:16:46.276Z,6.20
2023-03-27T01:16:56.323Z,5.50
2023-03-27T01:17:06.382Z,6.40
2023-03-27T01:17:16.420Z,6.40
2023-03-27T01:17:26.532Z,7.20
2023-03-27T01:17:36.598Z,7.20
2023-03-27T01:17:46.636Z,5.90
2023-03-27T01:17:56.675Z,6.00
2023-03-27T01:18:06.724Z,4.50
2023-03-27T01:18:16.761Z,5.80
2023-03-27T01:18:26.801Z,5.40
2023-03-27T01:18:36.875Z,7.10
2023-03-27T01:18:46.946Z,6.40
2023-03-27T01:18:56.972Z,7.60
2023-03-27T01:19:07.033Z,7.70
2023-03-27T01:19:17.078Z,8.10
2023-03-27T01:19:27.117Z,8.00
2023-03-27T01:19:37.142Z,6.30
2023-03-27T01:19:47.204Z,6.00
2023-03-27T01:19:57.256Z,4.60
2023-03-27T01:20:07.310Z,5.20
2023-03-27T01:20:17.348Z,5.30
2023-03-27T01:20:27.410Z,6.20
2023-03-27T01:20:37.461Z,6.40
2023-03-27T01:20:47.509Z,5.70
2023-03-27T01:20:57.711Z,5.60
2023-03-27T01:21:07.551Z,5.10
2023-03-27T01:21:17.583Z,5.70
2023-03-27T01:21:27.634Z,5.50
2023-03-27T01:21:37.696Z,6.00
2023-03-27T01:21:47.751Z,6.70
2023-03-27T01:21:57.801Z,7.30
2023-03-27T01:22:07.833Z,6.20
2023-03-27T01:22:17.870Z,4.80
2023-03-27T01:22:27.922Z,4.50
2023-03-27T01:22:37.951Z,6.00
2023-03-27T01:22:48.006Z,7.60
2023-03-27T01:22:58.043Z,7.60
2023-03-27T01:23:08.091Z,7.10
2023-03-27T01:23:35.752Z,6.10
2023-03-27T01:23:59.142Z,6.70
2023-03-27T01:23:59.751Z,4.50
2023-03-27T01:24:00.202Z,4.40
2023-03-27T01:24:01.968Z,5.40
2023-03-27T01:24:12.018Z,5.80
2023-03-27T01:24:22.040Z,5.50
2023-03-27T01:24:32.092Z,5.60
2023-03-27T01:24:42.127Z,5.40
2023-03-27T01:24:52.178Z,5.50
2023-03-27T01:25:02.335Z,4.50
2023-03-27T01:25:12.498Z,5.20
2023-03-27T01:25:22.675Z,5.10
2023-03-27T01:25:32.840Z,5.30
2023-03-27T01:25:42.974Z,5.60
2023-03-27T01:25:53.144Z,5.30
2023-03-27T01:26:03.284Z,5.20
2023-03-27T01:26:13.442Z,7.10
2023-03-27T01:26:35.288Z,7.70
2023-03-27T01:26:36.296Z,5.60
2023-03-27T01:26:44.648Z,5.30
2023-03-27T01:26:54.804Z,4.50
2023-03-27T01:27:04.959Z,4.50
2023-03-27T01:27:15.102Z,3.50
2023-03-27T01:27:25.134Z,4.90
2023-03-27T01:27:35.303Z,4.90
2023-03-27T01:27:45.338Z,5.30
2023-03-27T01:27:55.498Z,5.20
2023-03-27T01:28:05.645Z,5.90
2023-03-27T01:28:15.805Z,6.20
2023-03-27T01:28:25.806Z,5.80
2023-03-27T01:28:35.973Z,5.60
2023-03-27T01:28:46.149Z,5.30
2023-03-27T01:28:56.244Z,4.90
2023-03-27T01:29:06.284Z,4.10
2023-03-27T01:29:16.324Z,4.30
2023-03-27T01:29:26.361Z,5.00
2023-03-27T01:29:36.404Z,4.90
2023-03-27T01:29:46.444Z,5.80
2023-03-27T01:29:56.479Z,4.80
2023-03-27T01:30:06.525Z,5.50
2023-03-27T01:30:16.672Z,7.60
2023-03-27T01:30:26.729Z,8.90
2023-03-27T01:30:36.780Z,8.80
2023-03-27T01:30:46.809Z,6.80
2023-03-27T01:30:57.114Z,6.30
2023-03-27T01:31:06.937Z,7.50
2023-03-27T01:31:17.000Z,6.90
2023-03-27T01:31:27.076Z,8.20
2023-03-27T01:31:37.133Z,7.70
2023-03-27T01:31:47.184Z,7.30
2023-03-27T01:31:57.198Z,7.10
2023-03-27T01:32:07.252Z,6.20
2023-03-27T01:32:17.306Z,5.90
2023-03-27T01:32:27.372Z,4.80
2023-03-27T01:32:37.469Z,4.50
2023-03-27T01:32:47.493Z,6.70
2023-03-27T01:32:57.615Z,8.50
2023-03-27T01:33:07.773Z,10.10
2023-03-27T01:33:17.780Z,8.80
2023-03-27T01:33:27.807Z,6.80
2023-03-27T01:33:37.849Z,6.80
2023-03-27T01:33:47.906Z,5.30
2023-03-27T01:33:57.932Z,6.80
2023-03-27T01:34:08.020Z,5.80
2023-03-27T01:34:18.059Z,8.70
2023-03-27T01:34:28.095Z,6.60
2023-03-27T01:34:38.129Z,8.10
2023-03-27T01:34:48.161Z,6.70
2023-03-27T01:35:01.677Z,6.60
2023-03-27T01:35:09.221Z,5.60
2023-03-27T01:35:19.272Z,4.60
2023-03-27T01:35:29.327Z,6.40
2023-03-27T01:35:39.409Z,6.40
2023-03-27T01:35:49.429Z,7.90
2023-03-27T01:35:59.516Z,8.10
2023-03-27T01:36:09.528Z,7.40
2023-03-27T01:36:19.571Z,7.90
2023-03-27T01:36:29.606Z,10.40
2023-03-27T01:36:39.664Z,10.60
2023-03-27T01:36:49.697Z,7.80
2023-03-27T01:36:59.752Z,4.70
2023-03-27T01:37:09.809Z,4.10
2023-03-27T01:37:19.865Z,6.40
2023-03-27T01:37:29.900Z,7.00
2023-03-27T01:37:39.942Z,6.90
2023-03-27T01:37:49.977Z,4.90
2023-03-27T01:38:00.023Z,5.40
2023-03-27T01:38:10.049Z,6.10
2023-03-27T01:38:20.123Z,6.40
2023-03-27T01:38:30.148Z,5.30
2023-03-27T01:38:40.212Z,5.20
2023-03-27T01:38:50.279Z,5.60
2023-03-27T01:39:00.331Z,6.50
2023-03-27T01:39:10.379Z,6.10
2023-03-27T01:39:20.428Z,5.10
2023-03-27T01:39:30.489Z,4.60
2023-03-27T01:39:40.541Z,5.80
2023-03-27T01:39:50.595Z,5.80
2023-03-27T01:40:00.649Z,5.30
2023-03-27T01:40:10.680Z,6.90
2023-03-27T01:40:20.839Z,7.80
2023-03-27T01:40:30.885Z,9.20
2023-03-27T01:40:40.940Z,6.40
2023-03-27T01:40:50.981Z,7.20
2023-03-27T01:41:01.034Z,6.60
2023-03-27T01:41:11.079Z,7.60
2023-03-27T01:41:21.146Z,6.00
2023-03-27T01:41:31.186Z,5.40
2023-03-27T01:41:41.255Z,3.90
2023-03-27T01:41:51.305Z,3.90
2023-03-27T01:42:01.342Z,4.30
2023-03-27T01:42:11.392Z,5.10
2023-03-27T01:42:21.429Z,5.30
2023-03-27T01:42:31.498Z,5.20
2023-03-27T01:42:41.532Z,4.90
2023-03-27T01:42:51.580Z,5.50
2023-03-27T01:43:01.618Z,5.20
2023-03-27T01:43:11.662Z,5.20
2023-03-27T01:43:21.718Z,7.50
2023-03-27T01:43:31.781Z,8.40
2023-03-27T01:43:41.859Z,9.10
2023-03-27T01:43:51.933Z,7.70
2023-03-27T01:44:01.967Z,6.30
2023-03-27T01:44:12.010Z,5.20
2023-03-27T01:44:22.046Z,6.10
2023-03-27T01:44:43.133Z,6.90
2023-03-27T01:44:43.464Z,6.50
2023-03-27T01:44:53.075Z,7.00
2023-03-27T01:45:03.113Z,8.50
2023-03-27T01:45:13.146Z,8.20
2023-03-27T01:45:23.178Z,6.30
2023-03-27T01:45:33.211Z,4.00
2023-03-27T01:45:43.265Z,4.10
2023-03-27T01:45:53.302Z,5.20
2023-03-27T01:46:03.361Z,7.00
2023-03-27T01:46:13.423Z,6.70
2023-03-27T01:46:23.560Z,6.20
2023-03-27T01:46:33.589Z,5.80
2023-03-27T01:46:43.678Z,7.30
2023-03-27T01:46:53.764Z,6.70
2023-03-27T01:47:03.827Z,5.70
2023-03-27T01:47:13.842Z,4.30
2023-03-27T01:47:23.978Z,5.80
2023-03-27T01:47:34.098Z,5.40
2023-03-27T01:47:44.219Z,6.00
2023-03-27T01:47:54.307Z,7.70
2023-03-27T01:48:04.387Z,8.30
2023-03-27T01:48:14.414Z,8.10
2023-03-27T01:48:24.571Z,4.70
2023-03-27T01:48:34.464Z,5.40
2023-03-27T01:48:44.519Z,5.70
2023-03-27T01:48:54.592Z,6.20
2023-03-27T01:49:04.631Z,4.70
2023-03-27T01:49:14.681Z,3.90
2023-03-27T01:49:24.725Z,4.70
2023-03-27T01:49:34.757Z,6.30
2023-03-27T01:49:44.816Z,7.30
2023-03-27T01:49:54.851Z,6.00
2023-03-27T01:50:04.904Z,6.40
2023-03-27T01:50:14.959Z,8.00
2023-03-27T01:50:25.077Z,9.20
2023-03-27T01:50:35.117Z,9.20
2023-03-27T01:50:45.161Z,6.70
2023-03-27T01:50:55.437Z,5.90
2023-03-27T01:51:05.378Z,4.90
2023-03-27T01:51:15.402Z,6.20
2023-03-27T01:51:25.445Z,6.80
2023-03-27T01:51:35.478Z,6.30
2023-03-27T01:51:45.518Z,8.00
2023-03-27T01:51:55.557Z,8.20
2023-03-27T01:52:05.630Z,8.30
2023-03-27T01:52:15.668Z,5.90
2023-03-27T01:52:25.719Z,4.80
2023-03-27T01:52:35.752Z,5.10
2023-03-27T01:52:45.787Z,4.30
2023-03-27T01:52:55.838Z,4.70
2023-03-27T01:53:05.889Z,3.80
2023-03-27T01:53:15.952Z,5.30
2023-03-27T01:53:25.986Z,5.00
2023-03-27T01:53:36.027Z,6.90
2023-03-27T01:53:46.085Z,6.20
2023-03-27T01:53:56.171Z,6.10
2023-03-27T01:54:06.194Z,4.60
2023-03-27T01:54:16.249Z,4.40
2023-03-27T01:54:26.290Z,5.40
2023-03-27T01:54:36.328Z,5.70
2023-03-27T01:54:46.356Z,7.70
2023-03-27T01:54:56.411Z,7.60
2023-03-27T01:55:06.440Z,6.70
2023-03-27T01:55:16.542Z,4.00
2023-03-27T01:56:03.857Z,4.60
2023-03-27T01:56:13.879Z,4.90
2023-03-27T01:56:23.896Z,5.40
2023-03-27T01:56:33.942Z,6.00
2023-03-27T01:56:43.955Z,6.40
2023-03-27T01:56:54.046Z,4.90
2023-03-27T01:57:04.161Z,5.40
2023-03-27T01:57:14.155Z,6.10
2023-03-27T01:57:24.170Z,6.20
2023-03-27T01:57:34.251Z,5.80
2023-03-27T01:57:49.268Z,3.80
2023-03-27T01:57:55.192Z,4.00
2023-03-27T01:58:05.376Z,2.80
2023-03-27T01:58:15.375Z,3.80
2023-03-27T01:58:25.548Z,4.10
2023-03-27T01:58:35.557Z,4.10
2023-03-27T01:58:45.573Z,4.10
2023-03-27T01:58:55.593Z,4.20
2023-03-27T01:59:05.610Z,6.00
2023-03-27T01:59:15.619Z,6.10
2023-03-27T01:59:25.638Z,7.00
2023-03-27T01:59:35.667Z,5.50
2023-03-27T01:59:45.696Z,5.00
2023-03-27T01:59:55.712Z,5.60
2023-03-27T02:00:18.386Z,6.30
2023-03-27T02:00:18.783Z,6.20
2023-03-27T02:00:26.982Z,6.00
2023-03-27T02:00:51.396Z,6.60
2023-03-27T02:00:51.649Z,6.80
2023-03-27T02:00:58.933Z,5.80
2023-03-27T02:01:09.276Z,4.80
2023-03-27T02:01:18.954Z,3.50
2023-03-27T02:01:29.138Z,4.50
2023-03-27T02:01:39.305Z,5.70
2023-03-27T02:01:49.292Z,5.80
2023-03-27T02:01:59.455Z,5.10
2023-03-27T02:02:09.628Z,4.20
2023-03-27T02:02:19.787Z,5.20
2023-03-27T02:02:30.042Z,4.90
2023-03-27T02:02:40.079Z,5.50
2023-03-27T02:02:50.064Z,6.20
2023-03-27T02:03:00.172Z,6.50
2023-03-27T02:03:10.078Z,6.70
2023-03-27T02:03:20.083Z,4.90
2023-03-27T02:03:30.107Z,4.30
2023-03-27T02:03:40.124Z,3.20
2023-03-27T02:03:50.149Z,3.80
2023-03-27T02:04:00.168Z,5.30
2023-03-27T02:04:10.367Z,5.50
2023-03-27T02:04:20.362Z,5.10
2023-03-27T02:04:30.413Z,4.70
2023-03-27T02:04:40.498Z,5.80
2023-03-27T02:04:50.548Z,5.80
2023-03-27T02:05:00.590Z,5.30
2023-03-27T02:05:10.604Z,5.30
2023-03-27T02:05:20.600Z,5.10
2023-03-27T02:05:30.768Z,5.90
2023-03-27T02:05:40.774Z,6.00
2023-03-27T02:05:50.787Z,7.70
2023-03-27T02:06:00.804Z,6.80
2023-03-27T02:06:10.969Z,5.50
2023-03-27T02:06:20.976Z,4.50
2023-03-27T02:06:30.995Z,4.70
2023-03-27T02:06:41.155Z,4.60
2023-03-27T02:06:51.158Z,4.70
2023-03-27T02:07:01.189Z,5.20
2023-03-27T02:07:11.212Z,4.40
2023-03-27T02:07:21.217Z,3.90
2023-03-27T02:07:31.236Z,3.00
2023-03-27T02:07:41.234Z,3.80
2023-03-27T02:07:51.230Z,5.00
2023-03-27T02:08:01.237Z,5.50
2023-03-27T02:08:11.258Z,5.60
2023-03-27T02:08:21.270Z,4.70
2023-03-27T02:08:31.274Z,5.00
2023-03-27T02:08:41.288Z,5.30
2023-03-27T02:08:51.313Z,5.70
2023-03-27T02:09:01.338Z,5.60
2023-03-27T02:09:11.528Z,4.20
2023-03-27T02:09:21.522Z,4.50
2023-03-27T02:09:31.529Z,4.80
2023-03-27T02:09:41.579Z,6.00
2023-03-27T02:09:51.568Z,6.30
2023-03-27T02:10:01.595Z,6.30
2023-03-27T02:10:11.614Z,6.00
2023-03-27T02:10:21.611Z,4.60
2023-03-27T02:10:31.620Z,4.40
2023-03-27T02:10:41.648Z,4.10
2023-03-27T02:10:51.646Z,4.40
2023-03-27T02:11:01.662Z,3.50
2023-03-27T02:11:11.841Z,3.00
2023-03-27T02:11:21.854Z,2.80
2023-03-27T02:11:31.877Z,3.70
2023-03-27T02:11:41.936Z,5.80
2023-03-27T02:11:51.950Z,6.10
2023-03-27T02:12:01.958Z,4.90
2023-03-27T02:12:12.035Z,3.10
2023-03-27T02:12:22.017Z,4.20
2023-03-27T02:12:32.041Z,5.10
2023-03-27T02:12:42.045Z,5.00
2023-03-27T02:12:52.051Z,4.50
2023-03-27T02:13:02.228Z,5.20
2023-03-27T02:13:12.253Z,5.50
2023-03-27T02:13:22.274Z,5.20
2023-03-27T02:13:32.305Z,4.10
2023-03-27T02:13:42.312Z,4.50
2023-03-27T02:13:52.329Z,4.80
2023-03-27T02:14:02.337Z,4.90
2023-03-27T02:14:12.377Z,4.80
2023-03-27T02:14:22.385Z,4.50
2023-03-27T02:14:32.403Z,4.70